sensor_id;sensor_type;location;lat;lon;timestamp;P1;durP1;ratioP1;P2;durP2;ratioP2
3789;SDS011;1910;49.042;9.028;2024-03-22T00:00:39;3.80;;;2.33;;
3789;SDS011;1910;49.042;9.028;2024-03-22T00:03:05;2.60;;;1.87;;
3789;SDS011;1910;49.042;9.028;2024-03-22T00:05:30;1.60;;;1.50;;
3789;SDS011;1910;49.042;9.028;2024-03-22T00:07:56;1.80;;;1.37;;
3789;SDS011;1910;49.042;9.028;2024-03-22T00:10:21;1.90;;;1.50;;
3789;SDS011;1910;49.042;9.028;2024-03-22T00:12:48;2.40;;;1.50;;
3789;SDS011;1910;49.042;9.028;2024-03-22T00:15:14;4.28;;;2.22;;
3789;SDS011;1910;49.042;9.028;2024-03-22T00:17:40;4.17;;;1.97;;
3789;SDS011;1910;49.042;9.028;2024-03-22T00:20:07;1.77;;;1.40;;
3789;SDS011;1910;49.042;9.028;2024-03-22T00:22:33;3.37;;;1.40;;
3789;SDS011;1910;49.042;9.028;2024-03-22T00:24:59;1.83;;;1.10;;
3789;SDS011;1910;49.042;9.028;2024-03-22T00:27:25;3.15;;;1.90;;
3789;SDS011;1910;49.042;9.028;2024-03-22T00:29:51;3.63;;;2.30;;
3789;SDS011;1910;49.042;9.028;2024-03-22T00:32:17;3.43;;;1.80;;
3789;SDS011;1910;49.042;9.028;2024-03-22T00:34:43;1.90;;;1.57;;
3789;SDS011;1910;49.042;9.028;2024-03-22T00:37:09;7.20;;;1.67;;
3789;SDS011;1910;49.042;9.028;2024-03-22T00:39:34;9.20;;;1.53;;
3789;SDS011;1910;49.042;9.028;2024-03-22T00:42:00;1.20;;;1.02;;
3789;SDS011;1910;49.042;9.028;2024-03-22T00:44:26;2.57;;;1.60;;
3789;SDS011;1910;49.042;9.028;2024-03-22T00:46:52;3.13;;;1.80;;
3789;SDS011;1910;49.042;9.028;2024-03-22T00:49:17;4.00;;;1.40;;
3789;SDS011;1910;49.042;9.028;2024-03-22T00:51:43;2.10;;;1.30;;
3789;SDS011;1910;49.042;9.028;2024-03-22T00:54:10;1.92;;;1.27;;
3789;SDS011;1910;49.042;9.028;2024-03-22T00:56:36;2.75;;;1.50;;
3789;SDS011;1910;49.042;9.028;2024-03-22T00:59:02;5.88;;;2.53;;
3789;SDS011;1910;49.042;9.028;2024-03-22T01:01:28;2.30;;;1.90;;
3789;SDS011;1910;49.042;9.028;2024-03-22T01:03:53;1.70;;;1.20;;
3789;SDS011;1910;49.042;9.028;2024-03-22T01:06:19;9.60;;;2.43;;
3789;SDS011;1910;49.042;9.028;2024-03-22T01:08:49;4.40;;;1.70;;
3789;SDS011;1910;49.042;9.028;2024-03-22T01:11:16;6.15;;;2.00;;
3789;SDS011;1910;49.042;9.028;2024-03-22T01:13:42;4.80;;;1.83;;
3789;SDS011;1910;49.042;9.028;2024-03-22T01:16:08;6.60;;;2.53;;
3789;SDS011;1910;49.042;9.028;2024-03-22T01:18:34;2.95;;;1.65;;
3789;SDS011;1910;49.042;9.028;2024-03-22T01:21:00;5.93;;;3.50;;
3789;SDS011;1910;49.042;9.028;2024-03-22T01:23:26;5.28;;;2.30;;
3789;SDS011;1910;49.042;9.028;2024-03-22T01:25:52;2.97;;;2.00;;
3789;SDS011;1910;49.042;9.028;2024-03-22T01:28:20;3.43;;;2.43;;
3789;SDS011;1910;49.042;9.028;2024-03-22T01:30:46;4.57;;;2.28;;
3789;SDS011;1910;49.042;9.028;2024-03-22T01:33:11;3.80;;;1.80;;
3789;SDS011;1910;49.042;9.028;2024-03-22T01:35:38;4.57;;;2.20;;
3789;SDS011;1910;49.042;9.028;2024-03-22T01:38:03;4.10;;;2.07;;
3789;SDS011;1910;49.042;9.028;2024-03-22T01:40:29;7.53;;;1.97;;
3789;SDS011;1910;49.042;9.028;2024-03-22T01:42:58;1.13;;;1.03;;
3789;SDS011;1910;49.042;9.028;2024-03-22T01:45:24;3.00;;;2.22;;
3789;SDS011;1910;49.042;9.028;2024-03-22T01:47:51;3.90;;;1.90;;
3789;SDS011;1910;49.042;9.028;2024-03-22T01:50:19;3.30;;;1.85;;
3789;SDS011;1910;49.042;9.028;2024-03-22T01:52:45;2.72;;;1.10;;
3789;SDS011;1910;49.042;9.028;2024-03-22T01:55:11;2.50;;;1.33;;
3789;SDS011;1910;49.042;9.028;2024-03-22T01:57:37;3.42;;;1.95;;
3789;SDS011;1910;49.042;9.028;2024-03-22T02:00:04;4.28;;;2.08;;
3789;SDS011;1910;49.042;9.028;2024-03-22T02:02:30;2.65;;;1.75;;
3789;SDS011;1910;49.042;9.028;2024-03-22T02:04:56;1.60;;;1.50;;
3789;SDS011;1910;49.042;9.028;2024-03-22T02:07:21;5.40;;;2.73;;
3789;SDS011;1910;49.042;9.028;2024-03-22T02:09:47;2.70;;;2.00;;
3789;SDS011;1910;49.042;9.028;2024-03-22T02:12:14;4.32;;;2.50;;
3789;SDS011;1910;49.042;9.028;2024-03-22T02:14:41;2.60;;;1.90;;
3789;SDS011;1910;49.042;9.028;2024-03-22T02:17:06;2.30;;;1.80;;
3789;SDS011;1910;49.042;9.028;2024-03-22T02:19:32;6.97;;;2.67;;
3789;SDS011;1910;49.042;9.028;2024-03-22T02:21:58;5.17;;;2.40;;
3789;SDS011;1910;49.042;9.028;2024-03-22T02:24:24;4.03;;;2.20;;
3789;SDS011;1910;49.042;9.028;2024-03-22T02:26:50;3.10;;;1.57;;
3789;SDS011;1910;49.042;9.028;2024-03-22T02:29:16;3.37;;;2.50;;
3789;SDS011;1910;49.042;9.028;2024-03-22T02:31:42;5.60;;;2.57;;
3789;SDS011;1910;49.042;9.028;2024-03-22T02:34:08;1.30;;;1.20;;
3789;SDS011;1910;49.042;9.028;2024-03-22T02:36:34;6.23;;;2.17;;
3789;SDS011;1910;49.042;9.028;2024-03-22T02:39:00;4.10;;;2.63;;
3789;SDS011;1910;49.042;9.028;2024-03-22T02:41:26;5.00;;;2.50;;
3789;SDS011;1910;49.042;9.028;2024-03-22T02:43:52;3.13;;;2.10;;
3789;SDS011;1910;49.042;9.028;2024-03-22T02:46:18;5.40;;;2.63;;
3789;SDS011;1910;49.042;9.028;2024-03-22T02:48:43;5.03;;;2.93;;
3789;SDS011;1910;49.042;9.028;2024-03-22T02:51:09;4.50;;;2.27;;
3789;SDS011;1910;49.042;9.028;2024-03-22T02:53:35;5.07;;;2.60;;
3789;SDS011;1910;49.042;9.028;2024-03-22T02:56:01;6.43;;;2.80;;
3789;SDS011;1910;49.042;9.028;2024-03-22T02:58:27;4.80;;;2.73;;
3789;SDS011;1910;49.042;9.028;2024-03-22T03:00:53;6.60;;;2.67;;
3789;SDS011;1910;49.042;9.028;2024-03-22T03:03:19;5.40;;;2.20;;
3789;SDS011;1910;49.042;9.028;2024-03-22T03:05:45;6.20;;;2.40;;
3789;SDS011;1910;49.042;9.028;2024-03-22T03:08:11;3.67;;;2.27;;
3789;SDS011;1910;49.042;9.028;2024-03-22T03:10:37;3.63;;;2.00;;
3789;SDS011;1910;49.042;9.028;2024-03-22T03:13:03;5.15;;;1.77;;
3789;SDS011;1910;49.042;9.028;2024-03-22T03:15:28;3.77;;;2.30;;
3789;SDS011;1910;49.042;9.028;2024-03-22T03:17:54;4.75;;;2.65;;
3789;SDS011;1910;49.042;9.028;2024-03-22T03:20:20;4.60;;;3.03;;
3789;SDS011;1910;49.042;9.028;2024-03-22T03:22:46;4.93;;;1.83;;
3789;SDS011;1910;49.042;9.028;2024-03-22T03:25:12;2.80;;;1.93;;
3789;SDS011;1910;49.042;9.028;2024-03-22T03:27:38;4.40;;;2.20;;
3789;SDS011;1910;49.042;9.028;2024-03-22T03:30:04;2.50;;;1.40;;
3789;SDS011;1910;49.042;9.028;2024-03-22T03:32:30;3.15;;;1.88;;
3789;SDS011;1910;49.042;9.028;2024-03-22T03:34:56;3.88;;;2.67;;
3789;SDS011;1910;49.042;9.028;2024-03-22T03:37:22;2.30;;;2.10;;
3789;SDS011;1910;49.042;9.028;2024-03-22T03:39:48;4.07;;;2.60;;
3789;SDS011;1910;49.042;9.028;2024-03-22T03:42:13;3.13;;;2.13;;
3789;SDS011;1910;49.042;9.028;2024-03-22T03:44:39;8.10;;;3.60;;
3789;SDS011;1910;49.042;9.028;2024-03-22T03:47:06;3.97;;;2.55;;
3789;SDS011;1910;49.042;9.028;2024-03-22T03:49:32;6.00;;;2.90;;
3789;SDS011;1910;49.042;9.028;2024-03-22T03:51:59;4.87;;;2.93;;
3789;SDS011;1910;49.042;9.028;2024-03-22T03:54:24;6.40;;;2.35;;
3789;SDS011;1910;49.042;9.028;2024-03-22T03:56:50;3.23;;;1.90;;
3789;SDS011;1910;49.042;9.028;2024-03-22T03:59:16;3.57;;;2.50;;
3789;SDS011;1910;49.042;9.028;2024-03-22T04:01:42;2.65;;;2.17;;
3789;SDS011;1910;49.042;9.028;2024-03-22T04:04:08;6.53;;;2.90;;
3789;SDS011;1910;49.042;9.028;2024-03-22T04:06:34;5.27;;;3.30;;
3789;SDS011;1910;49.042;9.028;2024-03-22T04:09:00;5.10;;;2.70;;
3789;SDS011;1910;49.042;9.028;2024-03-22T04:11:27;6.80;;;3.17;;
3789;SDS011;1910;49.042;9.028;2024-03-22T04:13:53;4.10;;;2.67;;
3789;SDS011;1910;49.042;9.028;2024-03-22T04:16:19;7.67;;;3.33;;
3789;SDS011;1910;49.042;9.028;2024-03-22T04:18:45;3.13;;;1.67;;
3789;SDS011;1910;49.042;9.028;2024-03-22T04:21:11;6.57;;;3.30;;
3789;SDS011;1910;49.042;9.028;2024-03-22T04:23:36;7.23;;;3.77;;
3789;SDS011;1910;49.042;9.028;2024-03-22T04:26:02;4.63;;;3.50;;
3789;SDS011;1910;49.042;9.028;2024-03-22T04:28:29;5.57;;;2.65;;
3789;SDS011;1910;49.042;9.028;2024-03-22T04:31:02;4.70;;;2.75;;
3789;SDS011;1910;49.042;9.028;2024-03-22T04:33:33;9.02;;;3.20;;
3789;SDS011;1910;49.042;9.028;2024-03-22T04:35:59;7.35;;;3.72;;
3789;SDS011;1910;49.042;9.028;2024-03-22T04:38:26;6.47;;;3.42;;
3789;SDS011;1910;49.042;9.028;2024-03-22T04:40:52;4.78;;;3.25;;
3789;SDS011;1910;49.042;9.028;2024-03-22T04:43:19;7.82;;;3.83;;
3789;SDS011;1910;49.042;9.028;2024-03-22T04:45:45;5.55;;;3.70;;
3789;SDS011;1910;49.042;9.028;2024-03-22T04:48:16;6.47;;;3.90;;
3789;SDS011;1910;49.042;9.028;2024-03-22T04:50:43;6.43;;;3.03;;
3789;SDS011;1910;49.042;9.028;2024-03-22T04:53:09;5.68;;;3.10;;
3789;SDS011;1910;49.042;9.028;2024-03-22T04:55:35;8.63;;;3.03;;
3789;SDS011;1910;49.042;9.028;2024-03-22T04:58:00;7.53;;;3.63;;
3789;SDS011;1910;49.042;9.028;2024-03-22T05:00:26;7.63;;;4.40;;
3789;SDS011;1910;49.042;9.028;2024-03-22T05:02:52;10.15;;;4.10;;
3789;SDS011;1910;49.042;9.028;2024-03-22T05:05:19;5.75;;;3.63;;
3789;SDS011;1910;49.042;9.028;2024-03-22T05:07:45;6.47;;;4.37;;
3789;SDS011;1910;49.042;9.028;2024-03-22T05:10:11;5.10;;;3.23;;
3789;SDS011;1910;49.042;9.028;2024-03-22T05:12:38;7.55;;;3.38;;
3789;SDS011;1910;49.042;9.028;2024-03-22T05:15:03;6.05;;;2.75;;
3789;SDS011;1910;49.042;9.028;2024-03-22T05:17:30;4.03;;;2.70;;
3789;SDS011;1910;49.042;9.028;2024-03-22T05:19:57;4.13;;;2.75;;
3789;SDS011;1910;49.042;9.028;2024-03-22T05:22:23;6.47;;;3.40;;
3789;SDS011;1910;49.042;9.028;2024-03-22T05:24:49;6.20;;;3.07;;
3789;SDS011;1910;49.042;9.028;2024-03-22T05:27:15;8.33;;;3.73;;
3789;SDS011;1910;49.042;9.028;2024-03-22T05:29:41;4.53;;;2.70;;
3789;SDS011;1910;49.042;9.028;2024-03-22T05:32:07;4.30;;;3.10;;
3789;SDS011;1910;49.042;9.028;2024-03-22T05:34:32;5.33;;;2.40;;
3789;SDS011;1910;49.042;9.028;2024-03-22T05:36:58;5.70;;;2.72;;
3789;SDS011;1910;49.042;9.028;2024-03-22T05:39:24;9.27;;;4.00;;
3789;SDS011;1910;49.042;9.028;2024-03-22T05:41:49;8.97;;;3.33;;
3789;SDS011;1910;49.042;9.028;2024-03-22T05:44:15;4.90;;;2.97;;
3789;SDS011;1910;49.042;9.028;2024-03-22T05:46:41;6.50;;;3.63;;
3789;SDS011;1910;49.042;9.028;2024-03-22T05:49:06;7.10;;;3.50;;
3789;SDS011;1910;49.042;9.028;2024-03-22T05:51:33;7.05;;;3.10;;
3789;SDS011;1910;49.042;9.028;2024-03-22T05:53:58;4.60;;;3.27;;
3789;SDS011;1910;49.042;9.028;2024-03-22T05:56:24;9.67;;;4.13;;
3789;SDS011;1910;49.042;9.028;2024-03-22T05:58:50;5.90;;;3.63;;
3789;SDS011;1910;49.042;9.028;2024-03-22T06:01:16;4.50;;;3.50;;
3789;SDS011;1910;49.042;9.028;2024-03-22T06:03:41;7.67;;;4.50;;
3789;SDS011;1910;49.042;9.028;2024-03-22T06:06:07;3.83;;;3.13;;
3789;SDS011;1910;49.042;9.028;2024-03-22T06:08:33;4.72;;;3.25;;
3789;SDS011;1910;49.042;9.028;2024-03-22T06:11:04;6.25;;;3.95;;
3789;SDS011;1910;49.042;9.028;2024-03-22T06:13:32;10.10;;;4.65;;
3789;SDS011;1910;49.042;9.028;2024-03-22T06:15:58;8.80;;;3.78;;
3789;SDS011;1910;49.042;9.028;2024-03-22T06:18:24;5.07;;;2.80;;
3789;SDS011;1910;49.042;9.028;2024-03-22T06:20:50;10.67;;;4.23;;
3789;SDS011;1910;49.042;9.028;2024-03-22T06:23:16;5.55;;;3.17;;
3789;SDS011;1910;49.042;9.028;2024-03-22T06:25:41;7.60;;;3.60;;
3789;SDS011;1910;49.042;9.028;2024-03-22T06:28:09;5.60;;;3.58;;
3789;SDS011;1910;49.042;9.028;2024-03-22T06:30:35;5.40;;;3.20;;
3789;SDS011;1910;49.042;9.028;2024-03-22T06:33:02;7.18;;;4.22;;
3789;SDS011;1910;49.042;9.028;2024-03-22T06:35:29;6.93;;;3.92;;
3789;SDS011;1910;49.042;9.028;2024-03-22T06:37:55;7.80;;;4.50;;
3789;SDS011;1910;49.042;9.028;2024-03-22T06:40:21;10.73;;;5.70;;
3789;SDS011;1910;49.042;9.028;2024-03-22T06:42:48;7.03;;;3.93;;
3789;SDS011;1910;49.042;9.028;2024-03-22T06:45:14;9.80;;;5.60;;
3789;SDS011;1910;49.042;9.028;2024-03-22T06:47:41;9.77;;;4.40;;
3789;SDS011;1910;49.042;9.028;2024-03-22T06:50:07;9.75;;;4.22;;
3789;SDS011;1910;49.042;9.028;2024-03-22T06:52:33;9.73;;;4.20;;
3789;SDS011;1910;49.042;9.028;2024-03-22T06:54:59;9.43;;;4.33;;
3789;SDS011;1910;49.042;9.028;2024-03-22T06:57:24;9.30;;;5.00;;
3789;SDS011;1910;49.042;9.028;2024-03-22T06:59:50;13.60;;;5.97;;
3789;SDS011;1910;49.042;9.028;2024-03-22T07:02:17;6.27;;;3.50;;
3789;SDS011;1910;49.042;9.028;2024-03-22T07:04:43;10.27;;;4.90;;
3789;SDS011;1910;49.042;9.028;2024-03-22T07:07:09;11.00;;;4.60;;
3789;SDS011;1910;49.042;9.028;2024-03-22T07:09:35;9.80;;;4.70;;
3789;SDS011;1910;49.042;9.028;2024-03-22T07:12:01;11.73;;;4.70;;
3789;SDS011;1910;49.042;9.028;2024-03-22T07:14:28;8.73;;;5.30;;
3789;SDS011;1910;49.042;9.028;2024-03-22T07:16:54;9.20;;;6.90;;
3789;SDS011;1910;49.042;9.028;2024-03-22T07:19:21;10.57;;;5.67;;
3789;SDS011;1910;49.042;9.028;2024-03-22T07:21:47;10.30;;;5.50;;
3789;SDS011;1910;49.042;9.028;2024-03-22T07:24:13;7.43;;;5.77;;
3789;SDS011;1910;49.042;9.028;2024-03-22T07:26:39;9.50;;;6.20;;
3789;SDS011;1910;49.042;9.028;2024-03-22T07:29:07;12.80;;;5.80;;
3789;SDS011;1910;49.042;9.028;2024-03-22T07:31:33;9.83;;;6.37;;
3789;SDS011;1910;49.042;9.028;2024-03-22T07:33:59;8.60;;;6.47;;
3789;SDS011;1910;49.042;9.028;2024-03-22T07:36:25;10.23;;;5.53;;
3789;SDS011;1910;49.042;9.028;2024-03-22T07:38:52;13.60;;;7.13;;
3789;SDS011;1910;49.042;9.028;2024-03-22T07:41:18;8.40;;;6.00;;
3789;SDS011;1910;49.042;9.028;2024-03-22T07:43:44;10.07;;;6.00;;
3789;SDS011;1910;49.042;9.028;2024-03-22T07:46:10;7.83;;;5.03;;
3789;SDS011;1910;49.042;9.028;2024-03-22T07:48:36;7.37;;;5.50;;
3789;SDS011;1910;49.042;9.028;2024-03-22T07:51:02;9.80;;;6.40;;
3789;SDS011;1910;49.042;9.028;2024-03-22T07:53:29;10.13;;;6.27;;
3789;SDS011;1910;49.042;9.028;2024-03-22T07:55:55;7.87;;;6.57;;
3789;SDS011;1910;49.042;9.028;2024-03-22T07:58:22;10.47;;;6.90;;
3789;SDS011;1910;49.042;9.028;2024-03-22T08:00:48;8.57;;;5.03;;
3789;SDS011;1910;49.042;9.028;2024-03-22T08:03:18;8.90;;;5.67;;
3789;SDS011;1910;49.042;9.028;2024-03-22T08:05:44;8.70;;;5.50;;
3789;SDS011;1910;49.042;9.028;2024-03-22T08:08:10;7.60;;;5.43;;
3789;SDS011;1910;49.042;9.028;2024-03-22T08:10:37;12.27;;;5.67;;
3789;SDS011;1910;49.042;9.028;2024-03-22T08:13:06;9.10;;;6.27;;
3789;SDS011;1910;49.042;9.028;2024-03-22T08:15:32;11.10;;;6.10;;
3789;SDS011;1910;49.042;9.028;2024-03-22T08:17:58;11.23;;;5.77;;
3789;SDS011;1910;49.042;9.028;2024-03-22T08:20:24;7.80;;;5.20;;
3789;SDS011;1910;49.042;9.028;2024-03-22T08:22:50;8.30;;;4.83;;
3789;SDS011;1910;49.042;9.028;2024-03-22T08:25:16;10.23;;;5.80;;
3789;SDS011;1910;49.042;9.028;2024-03-22T08:27:43;18.37;;;5.60;;
3789;SDS011;1910;49.042;9.028;2024-03-22T08:30:11;11.47;;;6.47;;
3789;SDS011;1910;49.042;9.028;2024-03-22T08:32:37;7.50;;;6.30;;
3789;SDS011;1910;49.042;9.028;2024-03-22T08:35:03;14.07;;;6.83;;
3789;SDS011;1910;49.042;9.028;2024-03-22T08:37:29;30.87;;;12.20;;
3789;SDS011;1910;49.042;9.028;2024-03-22T08:39:55;11.27;;;6.13;;
3789;SDS011;1910;49.042;9.028;2024-03-22T08:42:21;15.47;;;6.43;;
3789;SDS011;1910;49.042;9.028;2024-03-22T08:44:47;8.70;;;5.60;;
3789;SDS011;1910;49.042;9.028;2024-03-22T08:47:13;8.30;;;5.40;;
3789;SDS011;1910;49.042;9.028;2024-03-22T08:49:39;7.80;;;4.37;;
3789;SDS011;1910;49.042;9.028;2024-03-22T08:52:09;6.23;;;4.10;;
3789;SDS011;1910;49.042;9.028;2024-03-22T08:54:35;8.07;;;3.90;;
3789;SDS011;1910;49.042;9.028;2024-03-22T08:57:01;9.17;;;3.83;;
3789;SDS011;1910;49.042;9.028;2024-03-22T08:59:27;7.83;;;3.60;;
3789;SDS011;1910;49.042;9.028;2024-03-22T09:04:24;11.70;;;5.67;;
3789;SDS011;1910;49.042;9.028;2024-03-22T09:06:50;6.20;;;5.00;;
3789;SDS011;1910;49.042;9.028;2024-03-22T09:09:16;10.30;;;4.57;;
3789;SDS011;1910;49.042;9.028;2024-03-22T09:11:42;9.30;;;5.20;;
3789;SDS011;1910;49.042;9.028;2024-03-22T09:14:08;8.73;;;4.63;;
3789;SDS011;1910;49.042;9.028;2024-03-22T09:16:34;7.93;;;5.07;;
3789;SDS011;1910;49.042;9.028;2024-03-22T09:19:00;8.80;;;6.73;;
3789;SDS011;1910;49.042;9.028;2024-03-22T09:21:26;5.67;;;4.43;;
3789;SDS011;1910;49.042;9.028;2024-03-22T09:23:52;7.63;;;4.93;;
3789;SDS011;1910;49.042;9.028;2024-03-22T09:26:18;6.30;;;5.00;;
3789;SDS011;1910;49.042;9.028;2024-03-22T09:28:48;15.63;;;5.97;;
3789;SDS011;1910;49.042;9.028;2024-03-22T09:31:15;12.57;;;6.20;;
3789;SDS011;1910;49.042;9.028;2024-03-22T09:33:41;9.67;;;5.37;;
3789;SDS011;1910;49.042;9.028;2024-03-22T09:36:07;15.07;;;5.27;;
3789;SDS011;1910;49.042;9.028;2024-03-22T09:38:33;9.10;;;5.00;;
3789;SDS011;1910;49.042;9.028;2024-03-22T09:40:59;8.33;;;5.00;;
3789;SDS011;1910;49.042;9.028;2024-03-22T09:43:26;6.73;;;5.33;;
3789;SDS011;1910;49.042;9.028;2024-03-22T09:45:52;7.73;;;4.33;;
3789;SDS011;1910;49.042;9.028;2024-03-22T09:48:20;8.80;;;4.20;;
3789;SDS011;1910;49.042;9.028;2024-03-22T09:50:46;7.33;;;5.27;;
3789;SDS011;1910;49.042;9.028;2024-03-22T09:53:13;10.03;;;5.50;;
3789;SDS011;1910;49.042;9.028;2024-03-22T09:55:42;12.33;;;5.00;;
3789;SDS011;1910;49.042;9.028;2024-03-22T09:58:09;14.13;;;4.83;;
3789;SDS011;1910;49.042;9.028;2024-03-22T10:00:35;8.93;;;5.27;;
3789;SDS011;1910;49.042;9.028;2024-03-22T10:03:01;6.57;;;4.83;;
3789;SDS011;1910;49.042;9.028;2024-03-22T10:05:28;6.10;;;3.53;;
3789;SDS011;1910;49.042;9.028;2024-03-22T10:07:54;8.73;;;4.57;;
3789;SDS011;1910;49.042;9.028;2024-03-22T10:10:21;7.97;;;4.10;;
3789;SDS011;1910;49.042;9.028;2024-03-22T10:12:48;6.20;;;4.03;;
3789;SDS011;1910;49.042;9.028;2024-03-22T10:15:13;16.93;;;3.90;;
3789;SDS011;1910;49.042;9.028;2024-03-22T10:17:41;4.07;;;2.60;;
3789;SDS011;1910;49.042;9.028;2024-03-22T10:20:07;4.40;;;2.60;;
3789;SDS011;1910;49.042;9.028;2024-03-22T10:22:57;3.50;;;2.40;;
3789;SDS011;1910;49.042;9.028;2024-03-22T10:25:28;5.90;;;3.10;;
3789;SDS011;1910;49.042;9.028;2024-03-22T10:27:57;3.00;;;2.00;;
3789;SDS011;1910;49.042;9.028;2024-03-22T10:30:24;3.80;;;2.70;;
3789;SDS011;1910;49.042;9.028;2024-03-22T10:32:50;6.33;;;2.90;;
3789;SDS011;1910;49.042;9.028;2024-03-22T10:35:16;3.43;;;2.60;;
3789;SDS011;1910;49.042;9.028;2024-03-22T10:37:43;4.97;;;3.40;;
3789;SDS011;1910;49.042;9.028;2024-03-22T10:40:10;6.73;;;4.07;;
3789;SDS011;1910;49.042;9.028;2024-03-22T10:42:36;12.90;;;3.80;;
3789;SDS011;1910;49.042;9.028;2024-03-22T10:45:03;8.23;;;3.80;;
3789;SDS011;1910;49.042;9.028;2024-03-22T10:47:31;4.13;;;2.93;;
3789;SDS011;1910;49.042;9.028;2024-03-22T10:50:07;6.13;;;2.90;;
3789;SDS011;1910;49.042;9.028;2024-03-22T10:52:47;4.43;;;3.43;;
3789;SDS011;1910;49.042;9.028;2024-03-22T10:55:18;5.23;;;3.67;;
3789;SDS011;1910;49.042;9.028;2024-03-22T10:57:49;4.63;;;2.77;;
3789;SDS011;1910;49.042;9.028;2024-03-22T11:00:15;5.63;;;3.37;;
3789;SDS011;1910;49.042;9.028;2024-03-22T11:02:52;2.70;;;2.40;;
3789;SDS011;1910;49.042;9.028;2024-03-22T11:05:18;5.33;;;3.53;;
3789;SDS011;1910;49.042;9.028;2024-03-22T11:07:44;6.20;;;3.07;;
3789;SDS011;1910;49.042;9.028;2024-03-22T11:10:14;5.47;;;3.53;;
3789;SDS011;1910;49.042;9.028;2024-03-22T11:12:41;3.57;;;2.53;;
3789;SDS011;1910;49.042;9.028;2024-03-22T11:15:10;5.13;;;2.10;;
3789;SDS011;1910;49.042;9.028;2024-03-22T11:17:37;5.70;;;2.47;;
3789;SDS011;1910;49.042;9.028;2024-03-22T11:20:03;4.60;;;2.80;;
3789;SDS011;1910;49.042;9.028;2024-03-22T11:22:30;5.20;;;2.50;;
3789;SDS011;1910;49.042;9.028;2024-03-22T11:24:56;4.70;;;2.50;;
3789;SDS011;1910;49.042;9.028;2024-03-22T11:27:22;5.17;;;2.57;;
3789;SDS011;1910;49.042;9.028;2024-03-22T11:29:48;4.50;;;2.00;;
3789;SDS011;1910;49.042;9.028;2024-03-22T11:32:16;4.00;;;1.97;;
3789;SDS011;1910;49.042;9.028;2024-03-22T11:34:43;12.83;;;2.50;;
3789;SDS011;1910;49.042;9.028;2024-03-22T11:37:09;5.03;;;1.73;;
3789;SDS011;1910;49.042;9.028;2024-03-22T11:39:38;3.67;;;1.80;;
3789;SDS011;1910;49.042;9.028;2024-03-22T11:42:04;3.53;;;1.80;;
3789;SDS011;1910;49.042;9.028;2024-03-22T11:44:31;2.90;;;1.77;;
3789;SDS011;1910;49.042;9.028;2024-03-22T11:46:58;3.70;;;1.77;;
3789;SDS011;1910;49.042;9.028;2024-03-22T11:49:24;4.47;;;2.03;;
3789;SDS011;1910;49.042;9.028;2024-03-22T11:51:53;3.17;;;1.73;;
3789;SDS011;1910;49.042;9.028;2024-03-22T11:54:20;1.67;;;1.37;;
3789;SDS011;1910;49.042;9.028;2024-03-22T11:56:46;2.87;;;1.43;;
3789;SDS011;1910;49.042;9.028;2024-03-22T11:59:13;1.97;;;1.40;;
3789;SDS011;1910;49.042;9.028;2024-03-22T12:01:40;2.50;;;1.90;;
3789;SDS011;1910;49.042;9.028;2024-03-22T12:04:06;2.80;;;1.60;;
3789;SDS011;1910;49.042;9.028;2024-03-22T12:06:36;2.47;;;1.63;;
3789;SDS011;1910;49.042;9.028;2024-03-22T12:09:02;2.17;;;1.60;;
3789;SDS011;1910;49.042;9.028;2024-03-22T12:11:28;4.00;;;1.87;;
3789;SDS011;1910;49.042;9.028;2024-03-22T12:13:54;5.17;;;1.60;;
3789;SDS011;1910;49.042;9.028;2024-03-22T12:16:20;3.00;;;1.80;;
3789;SDS011;1910;49.042;9.028;2024-03-22T12:18:46;4.57;;;2.37;;
3789;SDS011;1910;49.042;9.028;2024-03-22T12:21:12;3.80;;;1.60;;
3789;SDS011;1910;49.042;9.028;2024-03-22T12:23:39;1.83;;;1.53;;
3789;SDS011;1910;49.042;9.028;2024-03-22T12:26:05;2.43;;;1.30;;
3789;SDS011;1910;49.042;9.028;2024-03-22T12:28:31;1.47;;;1.20;;
3789;SDS011;1910;49.042;9.028;2024-03-22T12:30:57;1.70;;;1.60;;
3789;SDS011;1910;49.042;9.028;2024-03-22T12:33:23;1.70;;;1.30;;
3789;SDS011;1910;49.042;9.028;2024-03-22T12:35:50;6.30;;;2.10;;
3789;SDS011;1910;49.042;9.028;2024-03-22T12:38:15;1.83;;;1.73;;
3789;SDS011;1910;49.042;9.028;2024-03-22T12:40:42;2.80;;;1.63;;
3789;SDS011;1910;49.042;9.028;2024-03-22T12:43:09;2.57;;;1.77;;
3789;SDS011;1910;49.042;9.028;2024-03-22T12:45:36;5.37;;;1.43;;
3789;SDS011;1910;49.042;9.028;2024-03-22T12:48:02;3.47;;;1.80;;
3789;SDS011;1910;49.042;9.028;2024-03-22T12:50:29;3.50;;;1.87;;
3789;SDS011;1910;49.042;9.028;2024-03-22T12:52:55;5.00;;;1.97;;
3789;SDS011;1910;49.042;9.028;2024-03-22T12:55:22;2.43;;;1.50;;
3789;SDS011;1910;49.042;9.028;2024-03-22T12:57:48;2.90;;;1.73;;
3789;SDS011;1910;49.042;9.028;2024-03-22T13:00:14;2.40;;;1.50;;
3789;SDS011;1910;49.042;9.028;2024-03-22T13:02:43;2.23;;;2.00;;
3789;SDS011;1910;49.042;9.028;2024-03-22T13:05:09;4.30;;;1.40;;
3789;SDS011;1910;49.042;9.028;2024-03-22T13:07:36;1.87;;;1.30;;
3789;SDS011;1910;49.042;9.028;2024-03-22T13:10:02;4.43;;;1.27;;
3789;SDS011;1910;49.042;9.028;2024-03-22T13:12:28;2.37;;;1.30;;
3789;SDS011;1910;49.042;9.028;2024-03-22T13:14:59;2.30;;;1.83;;
3789;SDS011;1910;49.042;9.028;2024-03-22T13:17:25;0.80;;;0.80;;
3789;SDS011;1910;49.042;9.028;2024-03-22T13:19:51;10.33;;;1.77;;
3789;SDS011;1910;49.042;9.028;2024-03-22T13:22:16;1.17;;;1.07;;
3789;SDS011;1910;49.042;9.028;2024-03-22T13:24:46;2.20;;;1.13;;
3789;SDS011;1910;49.042;9.028;2024-03-22T13:27:12;1.33;;;1.10;;
3789;SDS011;1910;49.042;9.028;2024-03-22T13:29:41;1.47;;;1.17;;
3789;SDS011;1910;49.042;9.028;2024-03-22T13:32:07;1.00;;;0.90;;
3789;SDS011;1910;49.042;9.028;2024-03-22T13:34:37;1.77;;;1.20;;
3789;SDS011;1910;49.042;9.028;2024-03-22T13:37:03;2.53;;;1.47;;
3789;SDS011;1910;49.042;9.028;2024-03-22T13:39:31;1.60;;;1.00;;
3789;SDS011;1910;49.042;9.028;2024-03-22T13:41:57;3.03;;;1.60;;
3789;SDS011;1910;49.042;9.028;2024-03-22T13:44:24;1.73;;;1.23;;
3789;SDS011;1910;49.042;9.028;2024-03-22T13:46:50;1.97;;;1.37;;
3789;SDS011;1910;49.042;9.028;2024-03-22T13:49:16;2.70;;;1.50;;
3789;SDS011;1910;49.042;9.028;2024-03-22T13:51:43;2.07;;;1.20;;
3789;SDS011;1910;49.042;9.028;2024-03-22T13:54:09;1.10;;;1.00;;
3789;SDS011;1910;49.042;9.028;2024-03-22T13:56:36;2.63;;;1.20;;
3789;SDS011;1910;49.042;9.028;2024-03-22T13:59:06;1.93;;;1.00;;
3789;SDS011;1910;49.042;9.028;2024-03-22T14:01:34;1.67;;;1.20;;
3789;SDS011;1910;49.042;9.028;2024-03-22T14:04:01;1.07;;;0.87;;
3789;SDS011;1910;49.042;9.028;2024-03-22T14:06:28;2.47;;;1.30;;
3789;SDS011;1910;49.042;9.028;2024-03-22T14:08:55;2.70;;;1.37;;
3789;SDS011;1910;49.042;9.028;2024-03-22T14:11:25;1.90;;;1.03;;
3789;SDS011;1910;49.042;9.028;2024-03-22T14:13:51;1.43;;;0.90;;
3789;SDS011;1910;49.042;9.028;2024-03-22T14:16:17;2.20;;;1.30;;
3789;SDS011;1910;49.042;9.028;2024-03-22T14:18:43;2.03;;;1.10;;
3789;SDS011;1910;49.042;9.028;2024-03-22T14:21:09;3.07;;;2.00;;
3789;SDS011;1910;49.042;9.028;2024-03-22T14:23:36;2.00;;;1.50;;
3789;SDS011;1910;49.042;9.028;2024-03-22T14:26:02;14.33;;;1.77;;
3789;SDS011;1910;49.042;9.028;2024-03-22T14:28:28;3.40;;;1.33;;
3789;SDS011;1910;49.042;9.028;2024-03-22T14:30:54;2.60;;;1.50;;
3789;SDS011;1910;49.042;9.028;2024-03-22T14:33:20;1.83;;;1.43;;
3789;SDS011;1910;49.042;9.028;2024-03-22T14:35:46;1.63;;;1.20;;
3789;SDS011;1910;49.042;9.028;2024-03-22T14:38:13;1.53;;;1.00;;
3789;SDS011;1910;49.042;9.028;2024-03-22T14:40:38;1.57;;;1.40;;
3789;SDS011;1910;49.042;9.028;2024-03-22T14:43:05;4.20;;;1.63;;
3789;SDS011;1910;49.042;9.028;2024-03-22T14:45:31;2.57;;;1.63;;
3789;SDS011;1910;49.042;9.028;2024-03-22T14:47:57;2.87;;;1.67;;
3789;SDS011;1910;49.042;9.028;2024-03-22T14:50:23;4.60;;;1.90;;
3789;SDS011;1910;49.042;9.028;2024-03-22T14:52:49;2.33;;;1.40;;
3789;SDS011;1910;49.042;9.028;2024-03-22T14:55:15;1.20;;;1.00;;
3789;SDS011;1910;49.042;9.028;2024-03-22T14:57:41;1.53;;;1.37;;
3789;SDS011;1910;49.042;9.028;2024-03-22T15:00:07;1.63;;;1.23;;
3789;SDS011;1910;49.042;9.028;2024-03-22T15:02:37;2.80;;;2.50;;
3789;SDS011;1910;49.042;9.028;2024-03-22T15:05:06;1.87;;;1.43;;
3789;SDS011;1910;49.042;9.028;2024-03-22T15:07:32;3.93;;;1.50;;
3789;SDS011;1910;49.042;9.028;2024-03-22T15:09:58;2.20;;;1.47;;
3789;SDS011;1910;49.042;9.028;2024-03-22T15:12:24;4.10;;;1.50;;